createdAt,value
2022-08-17T00:00:03.690Z,23.29
2022-08-17T00:03:15.149Z,23.22
2022-08-17T00:05:55.298Z,23.13
2022-08-17T00:08:26.646Z,23.10
2022-08-17T00:10:55.476Z,22.98
2022-08-17T00:13:31.024Z,22.86
2022-08-17T00:16:02.371Z,22.81
2022-08-17T00:19:01.506Z,22.76
2022-08-17T00:21:23.629Z,22.69
2022-08-17T00:23:52.130Z,22.64
2022-08-17T00:26:43.733Z,22.63
2022-08-17T00:29:09.844Z,22.57
2022-08-17T00:31:47.339Z,22.56
2022-08-17T00:34:14.697Z,22.53
2022-08-17T00:36:42.104Z,22.53
2022-08-17T00:39:10.250Z,22.50
2022-08-17T00:41:42.195Z,22.46
2022-08-17T00:44:12.006Z,22.44
2022-08-17T00:46:43.117Z,22.38
2022-08-17T00:49:12.749Z,22.36
2022-08-17T00:51:46.495Z,22.34
2022-08-17T00:54:24.905Z,22.26
2022-08-17T00:57:05.655Z,22.21
2022-08-17T00:59:39.752Z,22.22
2022-08-17T01:02:09.623Z,22.21
2022-08-17T01:04:37.539Z,22.19
2022-08-17T01:07:06.693Z,22.11
2022-08-17T01:09:34.568Z,22.09
2022-08-17T01:12:02.024Z,22.09
2022-08-17T01:14:29.526Z,22.11
2022-08-17T01:16:57.228Z,22.11
2022-08-17T01:19:28.793Z,22.07
2022-08-17T01:22:06.463Z,21.94
2022-08-17T01:24:35.952Z,21.89
2022-08-17T01:27:04.045Z,21.87
2022-08-17T01:29:40.947Z,21.83
2022-08-17T01:32:09.242Z,21.82
2022-08-17T01:34:42.775Z,21.76
2022-08-17T01:37:14.110Z,21.74
2022-08-17T01:39:57.586Z,21.73
2022-08-17T01:42:40.348Z,21.65
2022-08-17T01:45:16.789Z,21.58
2022-08-17T01:47:44.769Z,21.49
2022-08-17T01:50:23.775Z,21.43
2022-08-17T01:52:55.945Z,21.35
2022-08-17T01:55:33.243Z,21.28
2022-08-17T01:58:01.306Z,21.25
2022-08-17T02:00:47.123Z,21.19
2022-08-17T02:03:21.801Z,21.11
2022-08-17T02:05:50.585Z,21.09
2022-08-17T02:08:20.463Z,21.02
2022-08-17T02:11:11.500Z,20.99
2022-08-17T02:13:39.558Z,20.99
2022-08-17T02:16:06.781Z,20.97
2022-08-17T02:18:33.857Z,20.93
2022-08-17T02:21:01.533Z,20.90
2022-08-17T02:23:33.461Z,20.98
2022-08-17T02:26:01.903Z,21.07
2022-08-17T02:28:29.701Z,21.02
2022-08-17T02:31:03.384Z,20.95
2022-08-17T02:33:41.680Z,20.88
2022-08-17T02:36:12.493Z,20.79
2022-08-17T02:38:41.158Z,20.76
2022-08-17T02:41:09.198Z,20.76
2022-08-17T02:43:36.757Z,20.50
2022-08-17T02:46:03.793Z,20.65
2022-08-17T02:48:32.041Z,20.60
2022-08-17T02:51:00.812Z,20.55
2022-08-17T02:53:35.972Z,20.27
2022-08-17T02:56:04.122Z,20.44
2022-08-17T02:58:34.613Z,20.48
2022-08-17T03:01:07.146Z,20.47
2022-08-17T03:03:35.694Z,20.26
2022-08-17T03:06:03.727Z,20.45
2022-08-17T03:08:31.735Z,20.41
2022-08-17T03:10:58.743Z,20.32
2022-08-17T03:13:27.214Z,20.19
2022-08-17T03:15:54.301Z,20.33
2022-08-17T03:18:25.742Z,20.29
2022-08-17T03:21:00.837Z,20.30
2022-08-17T03:23:30.401Z,20.20
2022-08-17T03:26:00.103Z,20.10
2022-08-17T03:28:28.238Z,20.09
2022-08-17T03:30:55.657Z,20.09
2022-08-17T03:33:23.302Z,20.07
2022-08-17T03:35:50.785Z,20.15
2022-08-17T03:38:20.067Z,20.15
2022-08-17T03:40:56.260Z,20.13
2022-08-17T03:43:32.873Z,20.11
2022-08-17T03:46:34.398Z,20.15
2022-08-17T03:49:27.449Z,20.11
2022-08-17T03:52:15.739Z,20.14
2022-08-17T03:55:03.303Z,20.16
2022-08-17T03:57:31.621Z,20.17
2022-08-17T03:59:59.738Z,20.16
2022-08-17T04:02:33.831Z,20.17
2022-08-17T04:05:01.600Z,20.12
2022-08-17T04:07:31.466Z,20.11
2022-08-17T04:09:59.658Z,20.05
2022-08-17T04:12:31.471Z,20.06
2022-08-17T04:14:59.145Z,19.97
2022-08-17T04:17:29.241Z,20.05
2022-08-17T04:19:56.908Z,20.10
2022-08-17T04:22:33.070Z,20.13
2022-08-17T04:25:17.768Z,20.12
2022-08-17T04:27:44.832Z,20.09
2022-08-17T04:30:12.941Z,20.08
2022-08-17T04:33:04.058Z,20.06
2022-08-17T04:35:41.171Z,20.14
2022-08-17T04:38:14.279Z,20.13
2022-08-17T04:41:00.454Z,20.15
2022-08-17T04:43:30.947Z,20.13
2022-08-17T04:46:05.964Z,20.17
2022-08-17T04:48:38.592Z,20.20
2022-08-17T04:51:15.301Z,20.28
2022-08-17T04:53:53.988Z,20.36
2022-08-17T04:56:23.398Z,20.42
2022-08-17T04:58:54.020Z,20.35
2022-08-17T05:01:24.712Z,20.39
2022-08-17T05:03:54.684Z,20.43
2022-08-17T05:06:22.615Z,20.42
2022-08-17T05:08:49.857Z,20.41
2022-08-17T05:11:17.307Z,20.29
2022-08-17T05:13:44.926Z,20.24
2022-08-17T05:16:12.273Z,20.24
2022-08-17T05:18:39.528Z,20.29
2022-08-17T05:21:07.264Z,20.34
2022-08-17T05:23:41.930Z,20.37
2022-08-17T05:26:26.495Z,20.40
2022-08-17T05:29:00.545Z,20.46
2022-08-17T05:31:30.775Z,20.52
2022-08-17T05:33:58.829Z,20.46
2022-08-17T05:36:42.154Z,20.53
2022-08-17T05:39:16.507Z,20.46
2022-08-17T05:41:47.646Z,20.52
2022-08-17T05:44:16.358Z,20.48
2022-08-17T05:46:50.178Z,20.50
2022-08-17T05:49:27.185Z,20.61
2022-08-17T05:52:12.792Z,20.75
2022-08-17T05:55:13.901Z,20.84
2022-08-17T05:57:52.928Z,21.07
2022-08-17T06:00:43.247Z,21.30
2022-08-17T06:03:29.027Z,21.35
2022-08-17T06:06:34.711Z,21.47
2022-08-17T06:09:39.622Z,21.59
2022-08-17T06:12:45.783Z,21.69
2022-08-17T06:15:32.617Z,21.69
2022-08-17T06:18:06.324Z,21.83
2022-08-17T06:20:47.372Z,21.85
2022-08-17T06:23:30.492Z,21.98
2022-08-17T06:26:08.628Z,22.16
2022-08-17T06:28:58.631Z,22.43
2022-08-17T06:31:40.824Z,22.67
2022-08-17T06:34:12.590Z,22.99
2022-08-17T06:37:03.614Z,23.16
2022-08-17T06:39:49.871Z,23.33
2022-08-17T06:43:06.535Z,23.29
2022-08-17T06:45:50.257Z,23.28
2022-08-17T06:48:33.174Z,23.33
2022-08-17T06:51:52.468Z,23.39
2022-08-17T06:54:59.840Z,23.39
2022-08-17T06:57:33.496Z,23.45
2022-08-17T07:00:26.679Z,23.48
2022-08-17T07:02:59.613Z,23.59
2022-08-17T07:05:42.942Z,23.68
2022-08-17T07:08:45.366Z,23.63
2022-08-17T07:11:19.260Z,23.70
2022-08-17T07:14:20.015Z,23.81
2022-08-17T07:16:53.757Z,23.88
2022-08-17T07:19:31.730Z,24.08
2022-08-17T07:22:20.563Z,24.21
2022-08-17T07:25:02.415Z,24.27
2022-08-17T07:27:45.770Z,24.35
2022-08-17T07:30:25.181Z,24.36
2022-08-17T07:32:59.474Z,24.40
2022-08-17T07:35:37.534Z,24.56
2022-08-17T07:38:25.891Z,24.62
2022-08-17T07:41:03.369Z,24.63
2022-08-17T07:43:39.910Z,24.71
2022-08-17T07:46:42.146Z,24.88
2022-08-17T07:49:09.175Z,25.03
2022-08-17T07:51:46.657Z,25.21
2022-08-17T07:54:22.392Z,25.44
2022-08-17T07:56:56.467Z,25.64
2022-08-17T07:59:33.369Z,25.78
2022-08-17T08:02:06.215Z,25.91
2022-08-17T08:04:59.735Z,26.03
2022-08-17T08:07:37.388Z,26.30
2022-08-17T08:10:13.824Z,26.57
2022-08-17T08:12:45.323Z,26.98
2022-08-17T08:15:23.613Z,27.21
2022-08-17T08:18:18.670Z,27.42
2022-08-17T08:21:10.431Z,27.58
2022-08-17T08:24:00.060Z,27.92
2022-08-17T08:27:00.356Z,28.34
2022-08-17T08:29:44.838Z,28.67
2022-08-17T08:32:50.410Z,28.90
2022-08-17T08:35:37.876Z,29.41
2022-08-17T08:38:22.326Z,29.81
2022-08-17T08:41:31.901Z,29.99
2022-08-17T08:44:19.001Z,30.72
2022-08-17T08:46:49.158Z,31.04
2022-08-17T08:50:02.161Z,31.70
2022-08-17T08:52:35.495Z,32.76
2022-08-17T08:55:15.460Z,33.04
2022-08-17T08:58:08.307Z,33.35
2022-08-17T09:00:58.538Z,34.24
2022-08-17T09:04:24.601Z,34.71
2022-08-17T09:07:17.466Z,35.41
2022-08-17T09:09:59.680Z,35.95
2022-08-17T09:12:41.659Z,36.05
2022-08-17T09:15:33.468Z,35.95
2022-08-17T09:19:00.285Z,36.02
2022-08-17T09:21:18.838Z,35.95
2022-08-17T09:24:04.885Z,35.71
2022-08-17T09:26:43.067Z,35.19
2022-08-17T09:29:16.311Z,34.66
2022-08-17T09:31:55.228Z,34.53
2022-08-17T09:34:43.520Z,34.66
2022-08-17T09:37:53.118Z,35.14
2022-08-17T09:40:46.540Z,35.18
2022-08-17T09:43:30.631Z,35.51
2022-08-17T09:46:03.881Z,35.21
2022-08-17T09:48:31.712Z,35.42
2022-08-17T09:51:17.763Z,35.73
2022-08-17T09:53:45.454Z,36.08
2022-08-17T09:56:20.642Z,36.26
2022-08-17T09:58:48.021Z,36.16
2022-08-17T10:01:53.663Z,36.45
2022-08-17T10:04:32.175Z,36.71
2022-08-17T10:07:24.714Z,36.78
2022-08-17T10:10:19.588Z,36.78
2022-08-17T10:13:09.580Z,36.94
2022-08-17T10:15:54.717Z,36.72
2022-08-17T10:18:22.116Z,36.81
2022-08-17T10:21:15.360Z,36.88
2022-08-17T10:24:03.962Z,36.41
2022-08-17T10:26:40.354Z,37.08
2022-08-17T10:29:53.810Z,38.10
2022-08-17T10:32:32.824Z,38.94
2022-08-17T10:35:00.222Z,39.54
2022-08-17T10:37:35.833Z,38.91
2022-08-17T10:40:32.538Z,39.63
2022-08-17T10:43:27.042Z,39.47
2022-08-17T10:46:29.927Z,38.72
2022-08-17T10:49:17.065Z,38.78
2022-08-17T10:51:59.969Z,39.03
2022-08-17T10:54:48.130Z,38.76
2022-08-17T10:57:34.082Z,38.79
2022-08-17T11:00:27.822Z,39.08
2022-08-17T11:02:57.501Z,39.79
2022-08-17T11:05:44.056Z,39.65
2022-08-17T11:08:57.489Z,39.54
2022-08-17T11:11:53.046Z,38.28
2022-08-17T11:14:41.265Z,37.90
2022-08-17T11:17:14.692Z,36.37
2022-08-17T11:19:57.226Z,37.42
2022-08-17T11:22:57.988Z,38.28
2022-08-17T11:25:47.245Z,39.21
2022-08-17T11:28:19.323Z,39.73
2022-08-17T11:30:51.870Z,39.48
2022-08-17T11:33:34.111Z,39.74
2022-08-17T11:36:32.113Z,39.76
2022-08-17T11:39:19.487Z,38.82
2022-08-17T11:41:58.715Z,37.82
2022-08-17T11:45:03.621Z,38.43
2022-08-17T11:48:27.197Z,39.16
2022-08-17T11:51:19.058Z,39.55
2022-08-17T11:53:46.495Z,39.27
2022-08-17T11:56:35.776Z,38.82
2022-08-17T11:59:23.301Z,38.77
2022-08-17T12:01:51.931Z,39.06
2022-08-17T12:04:22.719Z,39.19
2022-08-17T12:06:56.874Z,39.10
2022-08-17T12:09:32.090Z,39.04
2022-08-17T12:12:16.911Z,38.51
2022-08-17T12:15:10.565Z,37.44
2022-08-17T12:17:42.020Z,36.58
2022-08-17T12:20:37.201Z,35.67
2022-08-17T12:23:09.010Z,35.05
2022-08-17T12:25:56.248Z,34.93
2022-08-17T12:28:34.977Z,35.12
2022-08-17T12:31:08.479Z,34.63
2022-08-17T12:33:42.413Z,34.38
2022-08-17T12:36:15.365Z,34.32
2022-08-17T12:38:52.157Z,34.40
2022-08-17T12:41:41.740Z,34.34
2022-08-17T12:44:15.081Z,34.28
2022-08-17T12:47:23.328Z,34.27
2022-08-17T12:49:53.691Z,34.19
2022-08-17T12:52:28.105Z,34.09
2022-08-17T12:55:00.218Z,34.02
2022-08-17T12:57:33.644Z,34.27
2022-08-17T13:00:12.116Z,34.33
2022-08-17T13:02:57.998Z,34.55
2022-08-17T13:05:37.200Z,34.57
2022-08-17T13:08:15.163Z,34.39
2022-08-17T13:10:53.463Z,34.11
2022-08-17T13:13:26.733Z,34.14
2022-08-17T13:15:54.260Z,34.24
2022-08-17T13:18:44.390Z,34.38
2022-08-17T13:21:27.022Z,33.77
2022-08-17T13:24:03.834Z,33.74
2022-08-17T13:26:44.294Z,33.88
2022-08-17T13:29:23.756Z,33.83
2022-08-17T13:32:13.547Z,34.03
2022-08-17T13:35:14.198Z,33.84
2022-08-17T13:37:40.728Z,33.68
2022-08-17T13:40:10.356Z,33.83
2022-08-17T13:42:52.967Z,33.99
2022-08-17T13:45:34.997Z,33.97
2022-08-17T13:48:16.777Z,34.36
2022-08-17T13:50:56.370Z,34.61
2022-08-17T13:53:34.135Z,34.66
2022-08-17T13:56:37.104Z,34.50
2022-08-17T13:59:06.626Z,34.36
2022-08-17T14:01:40.017Z,34.04
2022-08-17T14:04:14.083Z,33.85
2022-08-17T14:06:54.463Z,33.74
2022-08-17T14:09:37.195Z,32.90
2022-08-17T14:12:11.865Z,33.31
2022-08-17T14:14:40.758Z,33.31
2022-08-17T14:17:08.377Z,33.24
2022-08-17T14:19:36.240Z,33.34
2022-08-17T14:22:06.487Z,33.50
2022-08-17T14:24:41.281Z,33.67
2022-08-17T14:27:12.312Z,33.78
2022-08-17T14:29:41.195Z,33.69
2022-08-17T14:32:19.056Z,33.91
2022-08-17T14:34:47.388Z,34.12
2022-08-17T14:37:15.825Z,34.02
2022-08-17T14:39:43.314Z,33.92
2022-08-17T14:42:11.461Z,33.85
2022-08-17T14:44:41.957Z,33.34
2022-08-17T14:47:15.728Z,33.72
2022-08-17T14:49:43.698Z,33.82
2022-08-17T14:52:21.726Z,33.91
2022-08-17T14:54:53.302Z,33.94
2022-08-17T14:57:33.673Z,33.91
2022-08-17T15:00:02.930Z,33.97
2022-08-17T15:02:31.212Z,33.69
2022-08-17T15:05:00.649Z,33.80
2022-08-17T15:07:30.929Z,33.88
2022-08-17T15:10:01.346Z,33.96
2022-08-17T15:12:34.582Z,33.88
2022-08-17T15:15:06.216Z,33.20
2022-08-17T15:17:43.908Z,33.72
2022-08-17T15:20:15.656Z,33.72
2022-08-17T15:22:45.018Z,33.75
2022-08-17T15:25:13.754Z,33.81
2022-08-17T15:27:41.547Z,33.83
2022-08-17T15:30:10.148Z,33.67
2022-08-17T15:32:40.877Z,33.50
2022-08-17T15:35:18.748Z,33.53
2022-08-17T15:38:04.519Z,33.34
2022-08-17T15:40:37.956Z,33.30
2022-08-17T15:43:07.985Z,33.34
2022-08-17T15:45:35.551Z,33.38
2022-08-17T15:48:03.501Z,33.32
2022-08-17T15:50:30.901Z,33.34
2022-08-17T15:53:00.577Z,33.39
2022-08-17T15:55:30.728Z,33.35
2022-08-17T15:57:58.309Z,33.40
2022-08-17T16:00:28.297Z,33.37
2022-08-17T16:03:46.394Z,33.30
2022-08-17T16:05:44.845Z,33.15
2022-08-17T16:08:18.466Z,33.17
2022-08-17T16:10:49.090Z,33.09
2022-08-17T16:13:18.214Z,33.11
2022-08-17T16:15:56.852Z,33.13
2022-08-17T16:18:31.407Z,33.10
2022-08-17T16:21:24.094Z,33.03
2022-08-17T16:23:57.804Z,32.95
2022-08-17T16:26:26.483Z,32.78
2022-08-17T16:28:54.899Z,32.67
2022-08-17T16:31:22.922Z,32.69
2022-08-17T16:34:15.563Z,32.64
2022-08-17T16:36:39.130Z,32.61
2022-08-17T16:39:06.584Z,32.51
2022-08-17T16:41:39.997Z,32.48
2022-08-17T16:44:08.748Z,32.31
2022-08-17T16:46:45.853Z,32.17
2022-08-17T16:49:24.417Z,32.05
2022-08-17T16:52:03.452Z,31.93
2022-08-17T16:54:34.302Z,31.87
2022-08-17T16:57:05.458Z,31.81
2022-08-17T16:59:42.220Z,31.74
2022-08-17T17:02:15.490Z,31.64
2022-08-17T17:05:27.526Z,31.53
2022-08-17T17:07:58.821Z,31.43
2022-08-17T17:10:38.675Z,31.36
2022-08-17T17:13:32.595Z,31.12
2022-08-17T17:16:12.373Z,30.73
2022-08-17T17:18:42.685Z,30.51
2022-08-17T17:21:19.694Z,30.31
2022-08-17T17:23:55.135Z,30.17
2022-08-17T17:26:52.959Z,30.00
2022-08-17T17:29:50.026Z,29.85
2022-08-17T17:32:26.763Z,29.71
2022-08-17T17:35:04.659Z,29.60
2022-08-17T17:37:34.812Z,29.48
2022-08-17T17:40:13.713Z,29.39
2022-08-17T17:42:43.706Z,29.31
2022-08-17T17:45:20.751Z,29.17
2022-08-17T17:47:48.437Z,29.05
2022-08-17T17:50:18.799Z,28.98
2022-08-17T17:53:08.839Z,28.94
2022-08-17T17:55:59.907Z,28.91
2022-08-17T17:58:39.705Z,28.82
2022-08-17T18:01:59.456Z,28.82
2022-08-17T18:04:52.507Z,28.68
2022-08-17T18:07:42.443Z,28.55
2022-08-17T18:10:42.412Z,28.40
2022-08-17T18:13:21.395Z,28.31
2022-08-17T18:15:54.440Z,28.18
2022-08-17T18:18:39.217Z,28.06
2022-08-17T18:21:18.738Z,27.99
2022-08-17T18:23:52.772Z,27.90
2022-08-17T18:26:53.570Z,27.81
2022-08-17T18:29:31.729Z,27.72
2022-08-17T18:32:17.575Z,27.64
2022-08-17T18:34:48.742Z,27.57
2022-08-17T18:37:32.118Z,27.51
2022-08-17T18:40:08.231Z,27.48
2022-08-17T18:42:38.332Z,27.41
2022-08-17T18:45:06.352Z,26.77
2022-08-17T18:47:33.964Z,27.29
2022-08-17T18:50:24.577Z,27.18
2022-08-17T18:52:52.020Z,27.12
2022-08-17T18:55:28.327Z,27.03
2022-08-17T18:58:16.072Z,26.95
2022-08-17T19:00:46.058Z,26.88
2022-08-17T19:03:22.158Z,26.84
2022-08-17T19:05:57.517Z,26.83
2022-08-17T19:08:31.057Z,26.77
2022-08-17T19:11:18.979Z,26.70
2022-08-17T19:13:52.214Z,26.63
2022-08-17T19:16:22.793Z,26.55
2022-08-17T19:18:58.587Z,26.50
2022-08-17T19:21:55.699Z,26.47
2022-08-17T19:24:30.658Z,26.42
2022-08-17T19:27:23.327Z,26.36
2022-08-17T19:30:02.677Z,26.34
2022-08-17T19:32:35.128Z,26.30
2022-08-17T19:35:05.858Z,26.25
2022-08-17T19:37:36.294Z,26.21
2022-08-17T19:40:24.482Z,26.19
2022-08-17T19:43:13.290Z,26.14
2022-08-17T19:46:15.706Z,26.08
2022-08-17T19:49:04.211Z,26.07
2022-08-17T19:52:05.086Z,26.03
2022-08-17T19:54:58.910Z,26.00
2022-08-17T19:58:01.810Z,25.92
2022-08-17T20:00:31.299Z,25.88
2022-08-17T20:02:58.913Z,25.84
2022-08-17T20:06:08.597Z,25.89
2022-08-17T20:08:33.901Z,25.88
2022-08-17T20:11:15.108Z,25.84
2022-08-17T20:13:49.018Z,25.69
2022-08-17T20:16:17.470Z,25.60
2022-08-17T20:18:53.807Z,25.54
2022-08-17T20:21:40.085Z,25.48
2022-08-17T20:24:39.145Z,25.43
2022-08-17T20:27:21.951Z,25.41
2022-08-17T20:30:03.381Z,25.39
2022-08-17T20:32:48.432Z,25.34
2022-08-17T20:35:27.056Z,25.31
2022-08-17T20:38:07.405Z,25.24
2022-08-17T20:40:59.746Z,25.19
2022-08-17T20:43:38.882Z,25.12
2022-08-17T20:46:11.884Z,25.10
2022-08-17T20:48:48.263Z,25.07
2022-08-17T20:51:31.453Z,25.02
2022-08-17T20:54:06.571Z,24.98
2022-08-17T20:57:01.012Z,24.94
2022-08-17T20:59:30.711Z,24.96
2022-08-17T21:02:17.630Z,24.92
2022-08-17T21:04:47.411Z,24.85
2022-08-17T21:07:32.974Z,24.80
2022-08-17T21:10:25.896Z,24.76
2022-08-17T21:13:08.396Z,24.75
2022-08-17T21:15:57.194Z,24.72
2022-08-17T21:18:38.845Z,24.71
2022-08-17T21:21:25.139Z,24.70
2022-08-17T21:24:11.763Z,24.71
2022-08-17T21:26:50.830Z,24.73
2022-08-17T21:29:31.046Z,24.72
2022-08-17T21:32:02.928Z,24.64
2022-08-17T21:35:06.593Z,24.46
2022-08-17T21:37:44.307Z,24.43
2022-08-17T21:40:18.106Z,24.44
2022-08-17T21:42:53.745Z,24.43
2022-08-17T21:45:37.575Z,24.45
2022-08-17T21:48:16.383Z,24.46
2022-08-17T21:50:56.663Z,24.50
2022-08-17T21:53:33.751Z,24.48
2022-08-17T21:56:01.621Z,24.49
2022-08-17T21:58:35.864Z,24.44
2022-08-17T22:01:34.366Z,24.36
2022-08-17T22:04:11.222Z,24.15
2022-08-17T22:06:43.255Z,24.03
2022-08-17T22:09:32.069Z,23.98
2022-08-17T22:12:01.972Z,23.93
2022-08-17T22:14:52.155Z,23.90
2022-08-17T22:17:36.483Z,23.79
2022-08-17T22:20:14.690Z,23.76
2022-08-17T22:23:06.400Z,23.14
2022-08-17T22:25:56.351Z,23.66
2022-08-17T22:28:42.859Z,23.59
2022-08-17T22:31:14.498Z,23.57
2022-08-17T22:33:46.969Z,23.55
2022-08-17T22:36:25.189Z,23.50
2022-08-17T22:38:53.960Z,23.46
2022-08-17T22:41:24.089Z,23.40
2022-08-17T22:43:53.293Z,23.39
2022-08-17T22:46:23.800Z,23.38
2022-08-17T22:48:57.905Z,23.35
2022-08-17T22:51:30.871Z,23.29
2022-08-17T22:54:20.480Z,23.24
2022-08-17T22:57:14.827Z,23.18
2022-08-17T22:59:50.661Z,23.15
2022-08-17T23:02:22.983Z,23.12
2022-08-17T23:05:16.702Z,23.18
2022-08-17T23:07:46.598Z,23.18
2022-08-17T23:10:15.286Z,23.18
2022-08-17T23:12:42.983Z,23.10
2022-08-17T23:15:17.762Z,23.03
2022-08-17T23:17:45.692Z,22.94
2022-08-17T23:20:15.599Z,22.89
2022-08-17T23:22:52.527Z,22.89
2022-08-17T23:25:28.136Z,22.81
2022-08-17T23:27:57.592Z,22.73
2022-08-17T23:30:25.654Z,22.65
2022-08-17T23:32:59.331Z,22.56
2022-08-17T23:35:39.309Z,22.51
2022-08-17T23:38:09.761Z,22.46
2022-08-17T23:40:39.497Z,22.46
2022-08-17T23:43:24.353Z,22.43
2022-08-17T23:45:55.100Z,22.39
2022-08-17T23:48:32.542Z,22.38
2022-08-17T23:51:24.776Z,22.36
2022-08-17T23:54:07.739Z,22.30
2022-08-17T23:56:44.283Z,22.28
2022-08-17T23:59:13.329Z,22.23
